Time;durP1;ratioP1;P1;durP2;ratioP2;P2;SDS_P1;SDS_P2;PMS_P1;PMS_P2;Temp;Humidity;BMP_temperature;BMP_pressure;BME280_temperature;BME280_humidity;BME280_pressure;Samples;Min_cycle;Max_cycle;Signal;HPM_P1;HPM_P2
2021/09/27 00:00:47;;;;;;;5.40;3.15;;;22.30;99.50;;;;;;5055149;28;20041;-45
2021/09/27 00:03:16;;;;;;;4.05;2.85;;;22.20;99.60;;;;;;5078164;28;20048;-49
2021/09/27 00:05:44;;;;;;;4.55;3.45;;;22.20;99.70;;;;;;5062101;28;20512;-46
2021/09/27 00:08:12;;;;;;;4.18;2.85;;;22.30;99.80;;;;;;5061679;28;20056;-45
2021/09/27 00:10:42;;;;;;;5.78;3.97;;;22.30;99.70;;;;;;5095681;28;20405;-48
2021/09/27 00:13:11;;;;;;;6.57;3.60;;;22.40;99.70;;;;;;5061711;28;20058;-45
2021/09/27 00:15:46;;;;;;;6.35;3.50;;;22.40;99.60;;;;;;5078418;28;20048;-46
2021/09/27 00:18:14;;;;;;;3.38;2.55;;;22.40;99.50;;;;;;5078658;28;20040;-51
2021/09/27 00:20:46;;;;;;;5.55;2.80;;;22.40;99.60;;;;;;5078353;28;20089;-49
2021/09/27 00:23:15;;;;;;;5.20;2.45;;;22.40;99.50;;;;;;5061609;28;20048;-47
2021/09/27 00:25:43;;;;;;;4.95;2.60;;;22.40;99.70;;;;;;5061581;28;20044;-44
2021/09/27 00:28:12;;;;;;;3.75;2.67;;;22.40;99.50;;;;;;5061447;28;20054;-48
2021/09/27 00:30:40;;;;;;;4.43;2.55;;;22.30;99.60;;;;;;5078081;28;20044;-46
2021/09/27 00:33:08;;;;;;;4.25;3.05;;;22.30;99.70;;;;;;5094950;28;20068;-46
2021/09/27 00:35:38;;;;;;;4.38;3.20;;;22.40;99.70;;;;;;5078196;28;20101;-47
2021/09/27 00:38:08;;;;;;;4.30;2.75;;;22.40;99.70;;;;;;5094872;28;20039;-50
2021/09/27 00:40:41;;;;;;;4.30;3.10;;;22.40;99.70;;;;;;5094161;28;20524;-48
2021/09/27 00:43:11;;;;;;;3.50;2.92;;;22.40;99.70;;;;;;5076829;28;20076;-47
2021/09/27 00:45:42;;;;;;;4.13;3.13;;;22.40;99.60;;;;;;5094394;28;20413;-50
2021/09/27 00:48:11;;;;;;;8.35;3.08;;;22.40;99.60;;;;;;5094668;28;20048;-48
2021/09/27 00:50:45;;;;;;;6.45;3.28;;;22.50;99.60;;;;;;5077594;28;20047;-46
2021/09/27 00:53:30;;;;;;;4.97;2.97;;;22.50;99.50;;;;;;5061081;28;20048;-49
2021/09/27 00:55:59;;;;;;;5.60;3.65;;;22.50;99.40;;;;;;5094343;28;20078;-44
2021/09/27 00:58:28;;;;;;;7.28;3.55;;;22.50;99.40;;;;;;5061039;28;20048;-46
2021/09/27 01:00:56;;;;;;;5.88;3.53;;;22.50;99.50;;;;;;5077420;28;20078;-50
2021/09/27 01:03:25;;;;;;;5.50;3.65;;;22.40;99.50;;;;;;5094336;28;20070;-49
2021/09/27 01:06:19;;;;;;;6.88;3.80;;;22.30;99.60;;;;;;5094120;28;20052;-46
2021/09/27 01:09:23;;;;;;;6.68;4.03;;;22.20;99.90;;;;;;5077079;28;20063;-50
2021/09/27 01:12:18;;;;;;;5.68;4.07;;;22.00;99.90;;;;;;5077087;28;20375;-49
2021/09/27 01:15:10;;;;;;;5.03;3.58;;;22.00;99.90;;;;;;5077150;28;20222;-46
2021/09/27 01:17:53;;;;;;;5.32;3.55;;;21.90;99.90;;;;;;5077264;28;20044;-46
2021/09/27 01:20:32;;;;;;;6.10;3.63;;;21.90;99.90;;;;;;5093946;28;20044;-46
2021/09/27 01:23:27;;;;;;;5.07;3.63;;;21.90;99.90;;;;;;5077021;28;20082;-47
2021/09/27 01:26:17;;;;;;;6.72;3.67;;;21.90;99.90;;;;;;5093895;28;20056;-49
2021/09/27 01:29:01;;;;;;;5.22;3.47;;;22.00;99.90;;;;;;5093847;28;20035;-45
2021/09/27 01:31:57;;;;;;;4.70;2.95;;;22.10;99.90;;;;;;5076589;28;20516;-45
2021/09/27 01:34:37;;;;;;;5.33;3.00;;;22.10;99.90;;;;;;5076833;28;20139;-48
2021/09/27 01:37:20;;;;;;;5.55;3.28;;;22.20;99.90;;;;;;5076921;28;20343;-46
2021/09/27 01:40:20;;;;;;;4.97;3.38;;;22.20;99.90;;;;;;5076629;28;20050;-47
2021/09/27 01:43:15;;;;;;;5.20;3.05;;;22.20;99.90;;;;;;5023387;28;20129;-50
2021/09/27 01:46:01;;;;;;;5.45;3.42;;;22.20;99.90;;;;;;5093565;28;20044;-47
2021/09/27 01:48:41;;;;;;;5.45;3.50;;;22.20;99.90;;;;;;5094597;28;20498;-48
2021/09/27 01:51:40;;;;;;;5.25;3.30;;;22.20;99.90;;;;;;5094595;28;20075;-52
2021/09/27 01:54:16;;;;;;;5.57;3.63;;;22.10;99.90;;;;;;5076337;28;20044;-51
2021/09/27 01:57:15;;;;;;;6.35;3.47;;;22.10;99.90;;;;;;5076476;28;20130;-45
2021/09/27 02:00:00;;;;;;;5.13;3.85;;;22.00;99.90;;;;;;5093292;28;20048;-50
2021/09/27 02:02:49;;;;;;;4.85;3.25;;;21.80;99.90;;;;;;5094361;28;20048;-46
2021/09/27 02:05:42;;;;;;;4.97;3.38;;;21.80;99.90;;;;;;5076334;28;20102;-46
2021/09/27 02:08:16;;;;;;;6.00;3.83;;;21.80;99.90;;;;;;5093891;28;20135;-51
2021/09/27 02:10:46;;;;;;;7.22;4.07;;;21.70;99.90;;;;;;5093201;28;20045;-45
2021/09/27 02:13:42;;;;;;;10.68;4.05;;;21.60;99.90;;;;;;5075783;28;20036;-46
2021/09/27 02:16:22;;;;;;;6.07;3.63;;;21.60;99.90;;;;;;5094153;28;20047;-48
2021/09/27 02:19:07;;;;;;;10.15;3.60;;;21.60;99.90;;;;;;5093167;28;20036;-48
2021/09/27 02:21:41;;;;;;;8.43;3.85;;;21.60;99.90;;;;;;5092987;28;20040;-49
2021/09/27 02:24:26;;;;;;;4.53;2.92;;;21.60;99.90;;;;;;5059803;28;20494;-48
2021/09/27 02:26:54;;;;;;;4.80;3.45;;;21.50;99.90;;;;;;5076063;28;20047;-46
2021/09/27 02:29:22;;;;;;;6.95;4.40;;;21.50;99.90;;;;;;5076001;28;20493;-50
2021/09/27 02:32:14;;;;;;;6.43;3.50;;;21.50;99.90;;;;;;5075878;28;20040;-48
2021/09/27 02:34:53;;;;;;;6.03;3.65;;;21.50;99.90;;;;;;5093921;28;20052;-45
2021/09/27 02:37:26;;;;;;;7.00;3.80;;;21.60;99.90;;;;;;5092791;28;20036;-51
2021/09/27 02:40:35;;;;;;;5.55;3.70;;;21.50;99.90;;;;;;5092894;28;20032;-49
2021/09/27 02:43:07;;;;;;;5.18;3.55;;;21.60;99.90;;;;;;5076240;28;20048;-47
2021/09/27 02:45:37;;;;;;;4.90;2.83;;;21.70;99.90;;;;;;5059304;28;20051;-45
2021/09/27 02:48:39;;;;;;;6.40;3.40;;;21.70;99.90;;;;;;5093769;28;20059;-50
2021/09/27 02:51:09;;;;;;;5.90;4.05;;;21.70;99.90;;;;;;5093550;28;20063;-46
2021/09/27 02:53:37;;;;;;;4.63;3.30;;;21.80;99.90;;;;;;5075773;28;20044;-46
2021/09/27 02:56:38;;;;;;;8.38;3.90;;;21.80;99.90;;;;;;5092444;28;20076;-46
2021/09/27 02:59:34;;;;;;;5.38;3.55;;;21.80;99.90;;;;;;5075620;28;20080;-49
2021/09/27 03:02:17;;;;;;;6.37;3.30;;;21.90;99.90;;;;;;5092715;28;20390;-49
2021/09/27 03:04:59;;;;;;;6.55;3.25;;;21.90;99.90;;;;;;5092725;28;20146;-49
2021/09/27 03:07:49;;;;;;;5.22;3.58;;;21.90;99.90;;;;;;5079588;28;20040;-47
2021/09/27 03:10:41;;;;;;;6.10;3.42;;;21.90;99.90;;;;;;5084274;28;20504;-45
2021/09/27 03:13:19;;;;;;;4.40;3.72;;;21.90;99.90;;;;;;5096488;28;20455;-50
2021/09/27 03:16:34;;;;;;;5.35;3.75;;;21.90;99.90;;;;;;5079566;28;20094;-47
2021/09/27 03:19:30;;;;;;;7.80;3.83;;;21.80;99.90;;;;;;5062760;28;20382;-46
2021/09/27 03:22:24;;;;;;;6.55;3.55;;;21.70;99.90;;;;;;5096274;28;20513;-45
2021/09/27 03:25:01;;;;;;;6.97;4.50;;;21.80;99.90;;;;;;5096184;28;20056;-48
2021/09/27 03:27:44;;;;;;;6.47;3.45;;;21.80;99.90;;;;;;5096173;28;20510;-47
2021/09/27 03:30:20;;;;;;;8.23;3.72;;;21.70;99.90;;;;;;5096025;28;20089;-50
2021/09/27 03:33:08;;;;;;;4.43;3.03;;;21.70;99.90;;;;;;5096245;28;20553;-45
2021/09/27 03:35:48;;;;;;;5.38;3.58;;;21.70;99.90;;;;;;5096348;28;20043;-47
2021/09/27 03:38:27;;;;;;;5.57;3.40;;;21.70;99.90;;;;;;5096013;28;20064;-45
2021/09/27 03:41:36;;;;;;;6.07;3.63;;;21.70;99.90;;;;;;5096080;28;20096;-45
2021/09/27 03:44:15;;;;;;;6.30;3.92;;;21.80;99.90;;;;;;4998455;28;20260;-45
2021/09/27 03:47:28;;;;;;;6.00;3.47;;;21.80;99.90;;;;;;4998872;28;20132;-46
2021/09/27 03:50:09;;;;;;;8.68;4.40;;;21.80;99.90;;;;;;5056900;28;20059;-47
2021/09/27 03:53:02;;;;;;;4.75;3.08;;;21.80;99.90;;;;;;5078615;28;20051;-46
2021/09/27 03:55:48;;;;;;;4.78;3.50;;;21.80;99.90;;;;;;5082841;28;20464;-47
2021/09/27 03:58:27;;;;;;;4.80;3.78;;;21.90;99.90;;;;;;5096964;28;20063;-47
2021/09/27 04:01:04;;;;;;;4.40;3.20;;;21.90;99.90;;;;;;5078489;28;20047;-44
2021/09/27 04:03:56;;;;;;;6.50;3.78;;;21.90;99.90;;;;;;5078772;28;20126;-47
2021/09/27 04:06:54;;;;;;;5.25;3.35;;;21.70;99.90;;;;;;5094910;28;20435;-48
2021/09/27 04:09:39;;;;;;;4.80;3.53;;;21.70;99.90;;;;;;5078487;28;20048;-48
2021/09/27 04:12:31;;;;;;;5.20;3.63;;;21.60;99.90;;;;;;5096253;28;20072;-50
2021/09/27 04:15:07;;;;;;;6.03;3.63;;;21.50;99.90;;;;;;5079408;28;20067;-49
2021/09/27 04:17:56;;;;;;;8.73;4.47;;;21.50;99.90;;;;;;5092036;28;20078;-47
2021/09/27 04:20:45;;;;;;;5.45;4.22;;;21.40;99.90;;;;;;5083385;28;20142;-48
2021/09/27 04:23:31;;;;;;;6.03;4.18;;;21.30;99.90;;;;;;5057986;28;20045;-44
2021/09/27 04:26:06;;;;;;;6.03;3.95;;;21.20;99.90;;;;;;5058923;28;20064;-49
2021/09/27 04:28:48;;;;;;;5.20;3.92;;;21.20;99.90;;;;;;5038402;28;20095;-44
2021/09/27 04:31:26;;;;;;;6.93;3.75;;;21.20;99.90;;;;;;5038151;28;20045;-46
2021/09/27 04:34:24;;;;;;;5.85;4.03;;;21.10;99.90;;;;;;5037980;28;20045;-44
2021/09/27 04:36:56;;;;;;;8.15;4.47;;;21.00;99.90;;;;;;5017828;28;20613;-47
2021/09/27 04:39:29;;;;;;;5.88;4.07;;;21.00;99.90;;;;;;5040165;28;20051;-46
2021/09/27 04:42:06;;;;;;;5.57;4.00;;;21.00;99.90;;;;;;5075687;28;20416;-50
2021/09/27 04:44:59;;;;;;;7.45;4.68;;;21.00;99.90;;;;;;5083033;28;20044;-46
2021/09/27 04:47:45;;;;;;;8.10;4.28;;;21.00;99.90;;;;;;5094665;28;20087;-45
2021/09/27 04:50:34;;;;;;;15.10;5.20;;;20.90;99.90;;;;;;5055191;28;20041;-49
2021/09/27 04:53:01;;;;;;;7.10;4.57;;;20.90;99.90;;;;;;5074466;28;20062;-48
2021/09/27 04:56:09;;;;;;;7.05;4.30;;;20.90;99.90;;;;;;5088474;28;20044;-51
2021/09/27 04:58:45;;;;;;;7.95;4.28;;;20.90;99.90;;;;;;5035910;28;20041;-46
2021/09/27 05:01:36;;;;;;;6.90;3.92;;;21.00;99.90;;;;;;5074129;28;20086;-48
2021/09/27 05:04:39;;;;;;;6.45;4.88;;;21.00;99.90;;;;;;5057529;28;20110;-46
2021/09/27 05:07:21;;;;;;;9.95;6.18;;;21.10;99.90;;;;;;5057220;28;20040;-45
2021/09/27 05:10:01;;;;;;;7.57;4.90;;;21.10;99.90;;;;;;5073890;28;20060;-51
2021/09/27 05:13:00;;;;;;;9.13;5.50;;;21.10;99.90;;;;;;5057407;28;20048;-49
2021/09/27 05:15:41;;;;;;;6.20;5.03;;;21.10;99.90;;;;;;5027315;28;20490;-47
2021/09/27 05:18:56;;;;;;;7.68;5.20;;;21.10;99.90;;;;;;5040963;28;20059;-50
2021/09/27 05:21:57;;;;;;;8.77;5.18;;;21.20;99.90;;;;;;4961271;28;20631;-49
2021/09/27 05:24:58;;;;;;;6.75;5.10;;;21.30;99.90;;;;;;4985025;28;20117;-51
2021/09/27 05:27:45;;;;;;;8.10;5.13;;;21.40;99.90;;;;;;5090560;28;20048;-48
2021/09/27 05:30:46;;;;;;;6.70;4.40;;;21.60;99.90;;;;;;5076809;28;20059;-53
2021/09/27 05:33:27;;;;;;;8.65;5.65;;;21.80;99.90;;;;;;5076800;28;20164;-49
2021/09/27 05:36:06;;;;;;;8.68;5.30;;;21.90;99.90;;;;;;5093766;28;20469;-45
2021/09/27 05:38:42;;;;;;;9.30;6.55;;;22.00;99.90;;;;;;5075926;28;20460;-47
2021/09/27 05:41:36;;;;;;;7.10;5.45;;;22.10;99.90;;;;;;5064838;28;20089;-49
2021/09/27 05:44:40;;;;;;;10.95;5.45;;;22.20;99.90;;;;;;5080317;28;20049;-49
2021/09/27 05:47:12;;;;;;;8.80;4.80;;;22.20;99.90;;;;;;5048563;28;20044;-47
2021/09/27 05:50:13;;;;;;;12.25;6.15;;;22.30;99.90;;;;;;5076624;28;20043;-54
2021/09/27 05:52:55;;;;;;;13.20;5.97;;;22.20;99.90;;;;;;5091206;28;20039;-50
2021/09/27 05:55:37;;;;;;;7.47;5.10;;;22.30;99.90;;;;;;5052775;28;20099;-46
2021/09/27 05:58:34;;;;;;;7.60;4.90;;;22.50;99.90;;;;;;5054987;28;20043;-46
2021/09/27 06:01:30;;;;;;;7.40;4.85;;;22.60;99.90;;;;;;4987009;28;20144;-47
2021/09/27 06:04:07;;;;;;;8.10;4.63;;;22.70;99.90;;;;;;5074415;28;20118;-45
2021/09/27 06:07:05;;;;;;;6.70;4.18;;;22.90;99.90;;;;;;5075031;28;20581;-46
2021/09/27 06:09:44;;;;;;;9.00;4.22;;;23.00;99.90;;;;;;5076530;28;20063;-45
2021/09/27 06:12:26;;;;;;;8.73;3.90;;;23.10;99.90;;;;;;5071448;28;20044;-48
2021/09/27 06:14:59;;;;;;;8.95;4.15;;;23.30;99.90;;;;;;5070488;28;20070;-49
2021/09/27 06:17:43;;;;;;;5.53;3.75;;;23.50;99.90;;;;;;5054419;28;20152;-47
2021/09/27 06:20:23;;;;;;;7.05;3.30;;;23.70;99.90;;;;;;5054423;28;20090;-49
2021/09/27 06:23:17;;;;;;;6.95;4.38;;;23.90;99.90;;;;;;5054712;28;20070;-46
2021/09/27 06:26:00;;;;;;;8.40;4.40;;;24.10;99.90;;;;;;5072574;28;20360;-46
2021/09/27 06:28:52;;;;;;;8.35;3.60;;;24.30;99.90;;;;;;5055763;28;20060;-46
2021/09/27 06:31:30;;;;;;;6.47;3.92;;;24.50;99.90;;;;;;5055918;28;20057;-49
2021/09/27 06:34:23;;;;;;;5.85;3.63;;;24.90;99.90;;;;;;5072691;28;20037;-49
2021/09/27 06:36:51;;;;;;;5.53;4.00;;;25.20;99.90;;;;;;5072669;28;20045;-49
2021/09/27 06:39:26;;;;;;;6.53;4.20;;;25.10;99.90;;;;;;5054897;28;20048;-51
2021/09/27 06:41:54;;;;;;;7.03;4.72;;;25.30;99.90;;;;;;5055935;28;20514;-47
2021/09/27 06:44:24;;;;;;;8.77;4.65;;;25.40;99.90;;;;;;5073623;28;20068;-47
2021/09/27 06:46:54;;;;;;;7.28;4.75;;;25.70;99.90;;;;;;5039138;28;20041;-46
2021/09/27 06:49:23;;;;;;;6.55;4.78;;;25.90;99.90;;;;;;5055630;28;20494;-49
2021/09/27 06:51:51;;;;;;;7.72;3.97;;;26.00;99.90;;;;;;5055587;28;20134;-47
2021/09/27 06:54:19;;;;;;;5.82;3.45;;;26.30;99.90;;;;;;5055256;28;20055;-50
2021/09/27 06:56:47;;;;;;;6.78;4.28;;;26.60;99.90;;;;;;5072482;28;20036;-51
2021/09/27 06:59:17;;;;;;;6.82;3.40;;;26.70;99.90;;;;;;5055882;28;20036;-47
2021/09/27 07:01:45;;;;;;;5.70;3.90;;;26.90;99.60;;;;;;5055498;28;20519;-46
2021/09/27 07:04:13;;;;;;;6.20;3.13;;;27.20;99.30;;;;;;5055545;28;20051;-48
2021/09/27 07:06:41;;;;;;;5.18;3.10;;;27.40;98.40;;;;;;5072140;28;20070;-46
2021/09/27 07:09:10;;;;;;;8.40;3.15;;;27.60;97.60;;;;;;5080392;28;20059;-46
2021/09/27 07:11:40;;;;;;;6.38;2.38;;;27.60;96.20;;;;;;5078890;28;20106;-46
2021/09/27 07:14:09;;;;;;;6.65;3.00;;;27.70;95.70;;;;;;5074140;28;20189;-52
2021/09/27 07:16:37;;;;;;;5.80;3.55;;;27.60;95.00;;;;;;5075307;28;20048;-50
2021/09/27 07:19:06;;;;;;;8.10;3.63;;;27.70;94.90;;;;;;5075381;28;20051;-51
2021/09/27 07:21:36;;;;;;;85.32;12.40;;;27.70;94.60;;;;;;5075372;28;20040;-49
2021/09/27 07:24:05;;;;;;;15.77;4.82;;;27.70;94.20;;;;;;5075379;28;20052;-46
2021/09/27 07:26:35;;;;;;;32.25;7.40;;;27.70;93.90;;;;;;5093394;28;20044;-47
2021/09/27 07:29:04;;;;;;;16.92;6.13;;;27.80;94.00;;;;;;5081150;28;20537;-48
2021/09/27 07:31:33;;;;;;;15.68;5.30;;;28.00;94.10;;;;;;5069339;28;20052;-51
2021/09/27 07:34:03;;;;;;;12.63;4.07;;;28.10;93.60;;;;;;5065467;28;20468;-46
2021/09/27 07:36:31;;;;;;;10.38;4.72;;;28.30;93.00;;;;;;5069201;28;20048;-47
2021/09/27 07:38:58;;;;;;;8.10;3.58;;;28.50;92.90;;;;;;5084347;28;20127;-49
2021/09/27 07:41:29;;;;;;;6.57;3.13;;;28.60;92.70;;;;;;5089624;28;20043;-48
2021/09/27 07:43:57;;;;;;;10.65;4.10;;;28.60;92.80;;;;;;5060121;28;20394;-49
2021/09/27 07:46:26;;;;;;;13.38;5.03;;;28.70;92.40;;;;;;5092033;28;20044;-51
2021/09/27 07:48:53;;;;;;;6.32;3.55;;;28.80;92.10;;;;;;5091662;28;20539;-51
2021/09/27 07:51:22;;;;;;;13.00;4.55;;;28.90;92.00;;;;;;5081277;28;20050;-49
2021/09/27 07:53:50;;;;;;;8.05;3.45;;;29.10;91.90;;;;;;5091573;28;20102;-46
2021/09/27 07:56:18;;;;;;;6.38;3.50;;;29.10;91.60;;;;;;5076417;28;20045;-48
2021/09/27 07:58:46;;;;;;;4.15;3.10;;;29.10;91.30;;;;;;5080309;28;20044;-47
2021/09/27 08:01:14;;;;;;;8.02;2.85;;;29.20;90.80;;;;;;5080345;28;20097;-50
2021/09/27 08:03:42;;;;;;;6.00;2.85;;;29.30;89.90;;;;;;5080591;28;20036;-49
2021/09/27 08:06:13;;;;;;;8.63;2.85;;;29.40;88.40;;;;;;5081862;28;20052;-51
2021/09/27 08:08:41;;;;;;;4.97;2.70;;;29.40;86.80;;;;;;5068194;28;20105;-48
2021/09/27 08:11:09;;;;;;;7.40;3.75;;;29.60;86.70;;;;;;5055402;28;20040;-50
2021/09/27 08:13:37;;;;;;;8.93;2.85;;;29.60;86.30;;;;;;5088571;28;20033;-50
2021/09/27 08:16:05;;;;;;;4.32;2.58;;;29.60;86.20;;;;;;5092202;28;20051;-52
2021/09/27 08:18:33;;;;;;;4.50;2.88;;;29.60;86.10;;;;;;5076590;28;20409;-49
2021/09/27 08:21:05;;;;;;;5.95;2.83;;;29.70;86.10;;;;;;5077996;28;20093;-52
2021/09/27 08:23:33;;;;;;;7.68;3.22;;;29.70;84.40;;;;;;5095075;28;20044;-47
2021/09/27 08:26:01;;;;;;;5.78;3.03;;;29.80;84.50;;;;;;5076761;28;20044;-46
2021/09/27 08:28:30;;;;;;;5.60;2.88;;;29.90;84.00;;;;;;5094002;28;20056;-51
2021/09/27 08:31:05;;;;;;;4.80;2.88;;;30.00;83.20;;;;;;5078154;28;20097;-50
2021/09/27 08:33:33;;;;;;;4.68;3.17;;;30.10;83.40;;;;;;5094955;28;20075;-50
2021/09/27 08:36:05;;;;;;;8.00;2.80;;;30.10;82.70;;;;;;5077843;28;20121;-52
2021/09/27 08:38:37;;;;;;;9.15;3.60;;;30.20;82.20;;;;;;5094949;28;20044;-47
2021/09/27 08:41:26;;;;;;;6.53;2.97;;;30.20;81.90;;;;;;5094772;28;20067;-51
2021/09/27 08:44:03;;;;;;;6.80;3.08;;;30.30;81.70;;;;;;5077712;28;20121;-48
2021/09/27 08:46:39;;;;;;;7.60;3.10;;;30.50;80.80;;;;;;5078194;28;20119;-49
2021/09/27 08:49:34;;;;;;;7.53;2.95;;;30.00;80.30;;;;;;5078231;28;20052;-49
2021/09/27 08:52:04;;;;;;;9.15;3.40;;;29.20;81.00;;;;;;5094662;28;20044;-50
2021/09/27 08:54:34;;;;;;;10.27;3.58;;;29.00;81.90;;;;;;5095664;28;20435;-47
2021/09/27 08:57:22;;;;;;;11.30;4.22;;;28.50;82.80;;;;;;5077440;28;20131;-47
2021/09/27 09:00:01;;;;;;;10.77;4.13;;;28.10;84.80;;;;;;5077716;28;20047;-51
2021/09/27 09:02:56;;;;;;;16.52;5.88;;;27.80;86.00;;;;;;5076587;28;20041;-51
2021/09/27 09:05:40;;;;;;;6.80;3.35;;;27.50;85.90;;;;;;5077512;28;20051;-51
2021/09/27 09:08:19;;;;;;;9.35;4.13;;;27.30;87.00;;;;;;5093901;28;20079;-49
2021/09/27 09:11:12;;;;;;;8.73;3.60;;;27.10;88.00;;;;;;5095545;28;20131;-51
2021/09/27 09:13:47;;;;;;;7.00;3.00;;;26.90;88.20;;;;;;5095742;28;20122;-48
2021/09/27 09:16:18;;;;;;;10.25;3.47;;;26.80;88.00;;;;;;5094169;28;20145;-49
2021/09/27 09:18:49;;;;;;;6.85;4.53;;;26.60;89.10;;;;;;5094096;28;20056;-48
2021/09/27 09:21:37;;;;;;;8.73;4.63;;;26.50;90.10;;;;;;5077081;28;20040;-47
2021/09/27 09:24:11;;;;;;;9.68;3.42;;;26.40;90.00;;;;;;5093868;28;20094;-46
2021/09/27 09:26:43;;;;;;;5.60;2.92;;;26.40;89.80;;;;;;5094233;28;20036;-47
2021/09/27 09:29:18;;;;;;;5.60;3.28;;;26.30;89.10;;;;;;5095049;28;20044;-52
2021/09/27 09:31:51;;;;;;;7.75;4.35;;;26.30;88.60;;;;;;5077196;28;20044;-46
2021/09/27 09:34:19;;;;;;;10.70;5.13;;;26.40;88.70;;;;;;5076809;28;20501;-51
2021/09/27 09:36:50;;;;;;;8.18;3.30;;;26.40;87.60;;;;;;5076948;28;20063;-51
2021/09/27 09:39:28;;;;;;;16.50;4.82;;;26.50;86.90;;;;;;5076837;28;20044;-50
2021/09/27 09:42:05;;;;;;;7.63;3.85;;;26.80;86.50;;;;;;5076527;28;20139;-49
2021/09/27 09:44:44;;;;;;;9.10;4.15;;;27.30;86.70;;;;;;5076488;28;20044;-47
2021/09/27 09:47:18;;;;;;;9.38;3.75;;;28.00;87.40;;;;;;5093422;28;20072;-51
2021/09/27 09:50:04;;;;;;;10.52;4.63;;;28.50;86.70;;;;;;5093513;28;20040;-51
2021/09/27 09:52:37;;;;;;;11.48;3.88;;;28.90;85.60;;;;;;5093662;28;20040;-48
2021/09/27 09:55:35;;;;;;;11.35;5.05;;;29.30;83.40;;;;;;5093617;28;20134;-49
2021/09/27 09:58:30;;;;;;;13.55;5.32;;;29.60;83.50;;;;;;5094657;28;20082;-52
2021/09/27 10:01:02;;;;;;;12.43;5.30;;;29.80;83.10;;;;;;5093304;28;20051;-51
2021/09/27 10:03:34;;;;;;;11.82;4.85;;;29.80;82.70;;;;;;5093611;28;20061;-53
2021/09/27 10:06:08;;;;;;;23.52;6.15;;;30.00;82.30;;;;;;5059721;28;20142;-52
2021/09/27 10:08:37;;;;;;;11.77;4.93;;;30.10;81.70;;;;;;5092787;28;20048;-53
2021/09/27 10:11:14;;;;;;;14.15;5.05;;;30.10;81.40;;;;;;5076282;28;20048;-52
2021/09/27 10:13:55;;;;;;;11.20;4.60;;;30.30;81.60;;;;;;5092882;28;20055;-54
2021/09/27 10:16:44;;;;;;;14.23;4.90;;;30.40;80.80;;;;;;5094135;28;20097;-53
2021/09/27 10:19:26;;;;;;;13.73;5.65;;;30.60;80.60;;;;;;5093016;28;20040;-49
2021/09/27 10:22:12;;;;;;;15.48;4.63;;;30.60;80.30;;;;;;5076209;28;20044;-49
2021/09/27 10:24:49;;;;;;;11.63;4.40;;;30.70;79.60;;;;;;5059508;28;20044;-51
2021/09/27 10:27:33;;;;;;;14.77;5.63;;;30.80;79.60;;;;;;5059499;28;20048;-49
2021/09/27 10:30:20;;;;;;;10.98;4.82;;;31.00;79.40;;;;;;5092625;28;20056;-47
2021/09/27 10:32:55;;;;;;;18.90;6.63;;;31.00;79.00;;;;;;5059402;28;20142;-50
2021/09/27 10:35:30;;;;;;;11.60;5.20;;;31.10;76.80;;;;;;5093978;28;20048;-47
2021/09/27 10:38:10;;;;;;;24.65;8.00;;;31.10;76.80;;;;;;5094108;28;20044;-50
2021/09/27 10:40:45;;;;;;;11.30;4.82;;;30.90;77.80;;;;;;5092613;28;20098;-47
2021/09/27 10:43:18;;;;;;;14.93;5.82;;;30.70;78.20;;;;;;5059431;28;20048;-51
2021/09/27 10:45:57;;;;;;;12.82;4.93;;;30.60;78.40;;;;;;5092809;28;20048;-49
2021/09/27 10:48:26;;;;;;;15.48;5.53;;;30.40;78.30;;;;;;5060524;28;20044;-49
2021/09/27 10:51:05;;;;;;;20.55;5.22;;;30.30;78.80;;;;;;5092512;28;20048;-46
2021/09/27 10:53:38;;;;;;;9.63;4.78;;;30.30;78.90;;;;;;5092875;28;20048;-47
2021/09/27 10:56:37;;;;;;;10.57;4.72;;;30.40;79.10;;;;;;5059073;28;20089;-46
2021/09/27 10:59:13;;;;;;;9.27;4.13;;;30.50;79.10;;;;;;5075706;28;20109;-49
2021/09/27 11:02:15;;;;;;;11.15;3.97;;;30.60;80.10;;;;;;5075594;28;20044;-47
2021/09/27 11:04:52;;;;;;;9.60;4.65;;;30.80;83.90;;;;;;5076219;28;20520;-46
2021/09/27 11:07:31;;;;;;;12.45;4.22;;;30.80;83.20;;;;;;5075698;28;20044;-49
2021/09/27 11:10:25;;;;;;;10.77;3.80;;;30.80;83.80;;;;;;5059394;28;20063;-47
2021/09/27 11:12:55;;;;;;;12.27;5.03;;;30.60;85.70;;;;;;5092116;28;20093;-52
2021/09/27 11:15:31;;;;;;;11.85;5.20;;;30.40;86.10;;;;;;5092358;28;20048;-52
2021/09/27 11:18:11;;;;;;;9.80;4.63;;;30.30;86.80;;;;;;5092334;28;20048;-50
2021/09/27 11:20:42;;;;;;;9.00;4.60;;;30.10;86.90;;;;;;5092278;28;20050;-52
2021/09/27 11:23:29;;;;;;;10.50;4.90;;;30.00;87.00;;;;;;5092275;28;20048;-49
2021/09/27 11:26:14;;;;;;;11.75;4.70;;;30.00;86.90;;;;;;5094134;28;20048;-52
2021/09/27 11:29:01;;;;;;;10.23;4.68;;;29.80;87.10;;;;;;5097476;28;20483;-50
2021/09/27 11:31:35;;;;;;;8.48;4.18;;;29.50;87.40;;;;;;5079145;28;20051;-50
2021/09/27 11:34:08;;;;;;;12.07;4.63;;;29.50;87.20;;;;;;5079220;28;20093;-52
2021/09/27 11:36:48;;;;;;;16.80;5.13;;;29.30;85.30;;;;;;5096012;28;20088;-50
2021/09/27 11:39:36;;;;;;;13.77;5.00;;;29.20;84.70;;;;;;5095841;28;20076;-52
2021/09/27 11:42:12;;;;;;;12.43;4.82;;;29.10;84.30;;;;;;5096095;28;20135;-50
2021/09/27 11:44:57;;;;;;;12.60;4.70;;;28.90;84.30;;;;;;5096239;28;20040;-52
2021/09/27 11:47:40;;;;;;;14.93;5.05;;;28.90;84.10;;;;;;5095949;28;20043;-51
2021/09/27 11:50:44;;;;;;;17.38;5.93;;;28.80;83.70;;;;;;5095765;28;20514;-49
2021/09/27 11:53:43;;;;;;;18.85;5.50;;;28.70;82.40;;;;;;5065860;28;20106;-49
2021/09/27 11:56:29;;;;;;;14.95;5.32;;;28.80;82.60;;;;;;5096828;28;20044;-52
2021/09/27 11:59:04;;;;;;;22.10;5.05;;;28.80;82.60;;;;;;5078584;28;20044;-49
2021/09/27 12:01:43;;;;;;;16.02;4.93;;;28.90;81.50;;;;;;5095720;28;20082;-52
2021/09/27 12:04:54;;;;;;;12.70;4.07;;;29.00;83.20;;;;;;5095664;28;20039;-51
2021/09/27 12:07:27;;;;;;;8.20;3.80;;;29.00;86.00;;;;;;5095360;28;20079;-52
2021/09/27 12:10:03;;;;;;;5.70;3.20;;;29.10;87.00;;;;;;5078686;28;20562;-50
2021/09/27 12:12:41;;;;;;;6.57;2.85;;;29.20;88.60;;;;;;5062051;28;20036;-53
2021/09/27 12:15:10;;;;;;;6.47;2.80;;;29.20;88.40;;;;;;5095470;28;20063;-53
2021/09/27 12:17:40;;;;;;;6.07;3.25;;;29.30;88.00;;;;;;5095269;28;20044;-50
2021/09/27 12:20:20;;;;;;;9.10;3.10;;;29.30;87.80;;;;;;5078424;28;20086;-53
2021/09/27 12:22:57;;;;;;;7.85;4.20;;;29.30;87.50;;;;;;5077840;28;20048;-52
2021/09/27 12:25:34;;;;;;;5.20;2.88;;;29.30;87.30;;;;;;5096119;28;20056;-53
2021/09/27 12:28:12;;;;;;;9.68;3.75;;;29.20;87.50;;;;;;5095013;28;20044;-51
2021/09/27 12:30:53;;;;;;;7.90;3.00;;;29.00;87.60;;;;;;5096233;28;20040;-50
2021/09/27 12:33:31;;;;;;;11.02;3.42;;;28.80;88.10;;;;;;5096282;28;20093;-59
2021/09/27 12:36:16;;;;;;;7.10;3.25;;;28.70;88.50;;;;;;5095943;28;20040;-48
2021/09/27 12:38:50;;;;;;;13.75;3.70;;;28.70;88.50;;;;;;5096070;28;20374;-52
2021/09/27 12:41:20;;;;;;;6.88;3.63;;;28.60;88.30;;;;;;5078159;28;20486;-51
2021/09/27 12:43:49;;;;;;;7.70;4.05;;;28.70;87.70;;;;;;5078102;28;20047;-50
2021/09/27 12:46:27;;;;;;;6.03;3.38;;;28.70;87.30;;;;;;5094671;28;20048;-50
2021/09/27 12:49:00;;;;;;;12.65;3.78;;;28.70;86.90;;;;;;5078161;28;20048;-51
2021/09/27 12:51:40;;;;;;;10.43;3.17;;;28.60;86.90;;;;;;5094384;28;20044;-53
2021/09/27 12:54:27;;;;;;;6.13;3.70;;;28.50;87.20;;;;;;5095173;28;20047;-54
2021/09/27 12:56:57;;;;;;;13.43;3.70;;;28.50;87.30;;;;;;5094575;28;20085;-50
2021/09/27 12:59:28;;;;;;;7.93;3.38;;;28.40;87.30;;;;;;5094463;28;20048;-51
2021/09/27 13:02:00;;;;;;;11.63;3.42;;;28.40;87.80;;;;;;5094436;28;20397;-53
2021/09/27 13:05:03;;;;;;;7.35;3.13;;;28.40;88.00;;;;;;5061044;28;20036;-49
2021/09/27 13:07:47;;;;;;;11.43;3.58;;;28.40;88.20;;;;;;5023804;28;20146;-53
2021/09/27 13:10:22;;;;;;;8.10;3.30;;;28.20;88.00;;;;;;5077348;28;20052;-47
2021/09/27 13:13:07;;;;;;;8.35;3.47;;;28.20;87.90;;;;;;5094536;28;20040;-52
2021/09/27 13:15:37;;;;;;;8.38;3.92;;;28.10;87.80;;;;;;5077186;28;20502;-50
2021/09/27 13:18:10;;;;;;;8.10;3.95;;;28.10;87.40;;;;;;5094200;28;20069;-51
2021/09/27 13:21:00;;;;;;;9.70;4.43;;;28.00;86.90;;;;;;5060917;28;20078;-48
2021/09/27 13:23:40;;;;;;;9.75;4.45;;;28.00;87.00;;;;;;5095261;28;20398;-50
2021/09/27 13:26:19;;;;;;;9.90;4.07;;;28.00;86.90;;;;;;5094001;28;20071;-53
2021/09/27 13:29:03;;;;;;;9.27;4.25;;;28.10;86.80;;;;;;5095041;28;20044;-51
2021/09/27 13:31:51;;;;;;;8.60;3.63;;;28.00;86.80;;;;;;5076843;28;20552;-47
2021/09/27 13:34:33;;;;;;;6.38;3.30;;;27.90;86.60;;;;;;5076778;28;20036;-53
2021/09/27 13:37:01;;;;;;;7.93;2.88;;;27.90;87.30;;;;;;5093739;28;20105;-53
2021/09/27 13:39:38;;;;;;;9.82;4.45;;;27.80;88.00;;;;;;5072199;28;20531;-55
2021/09/27 13:42:08;;;;;;;12.20;2.97;;;27.80;88.30;;;;;;5072685;28;20498;-52
2021/09/27 13:44:50;;;;;;;6.90;3.30;;;27.70;88.20;;;;;;5039430;28;20049;-50
2021/09/27 13:47:23;;;;;;;6.85;3.38;;;27.60;88.60;;;;;;5072812;28;20036;-51
2021/09/27 13:49:52;;;;;;;8.90;3.47;;;27.60;88.90;;;;;;5071978;28;20376;-49